sensor_id;sensor_type;location;lat;lon;timestamp;temperature;humidity
54082;DHT22;39986;50.770;0.266;2023-06-14T00:02:11;18.10;99.90
54082;DHT22;39986;50.770;0.266;2023-06-14T00:04:37;18.10;99.90
54082;DHT22;39986;50.770;0.266;2023-06-14T00:07:05;18.00;99.90
54082;DHT22;39986;50.770;0.266;2023-06-14T00:09:33;18.00;99.90
54082;DHT22;39986;50.770;0.266;2023-06-14T00:11:59;17.90;99.90
54082;DHT22;39986;50.770;0.266;2023-06-14T00:14:24;17.90;99.90
54082;DHT22;39986;50.770;0.266;2023-06-14T00:16:50;18.00;99.90
54082;DHT22;39986;50.770;0.266;2023-06-14T00:19:17;17.90;99.90
54082;DHT22;39986;50.770;0.266;2023-06-14T00:21:43;17.90;99.90
54082;DHT22;39986;50.770;0.266;2023-06-14T00:24:08;17.90;99.90
54082;DHT22;39986;50.770;0.266;2023-06-14T00:26:34;18.00;99.90
54082;DHT22;39986;50.770;0.266;2023-06-14T00:29:00;17.90;99.90
54082;DHT22;39986;50.770;0.266;2023-06-14T00:31:25;18.00;99.90
54082;DHT22;39986;50.770;0.266;2023-06-14T00:33:51;18.00;99.90
54082;DHT22;39986;50.770;0.266;2023-06-14T00:36:16;17.90;99.90
54082;DHT22;39986;50.770;0.266;2023-06-14T00:38:42;17.90;99.90
54082;DHT22;39986;50.770;0.266;2023-06-14T00:41:07;17.90;99.90
54082;DHT22;39986;50.770;0.266;2023-06-14T00:43:33;17.90;99.90
54082;DHT22;39986;50.770;0.266;2023-06-14T00:46:00;17.80;99.90
54082;DHT22;39986;50.770;0.266;2023-06-14T00:48:25;17.80;99.90
54082;DHT22;39986;50.770;0.266;2023-06-14T00:50:52;17.80;99.90
54082;DHT22;39986;50.770;0.266;2023-06-14T00:53:18;17.70;99.90
54082;DHT22;39986;50.770;0.266;2023-06-14T00:55:44;17.70;99.90
54082;DHT22;39986;50.770;0.266;2023-06-14T00:58:10;17.70;99.90
54082;DHT22;39986;50.770;0.266;2023-06-14T01:00:36;17.70;99.90
54082;DHT22;39986;50.770;0.266;2023-06-14T01:03:01;17.70;99.90
54082;DHT22;39986;50.770;0.266;2023-06-14T01:05:28;17.60;99.90
54082;DHT22;39986;50.770;0.266;2023-06-14T01:13:09;17.50;99.90
54082;DHT22;39986;50.770;0.266;2023-06-14T01:15:36;17.50;99.90
54082;DHT22;39986;50.770;0.266;2023-06-14T01:18:04;17.50;99.90
54082;DHT22;39986;50.770;0.266;2023-06-14T01:20:31;17.50;99.90
54082;DHT22;39986;50.770;0.266;2023-06-14T01:22:58;17.50;99.90
54082;DHT22;39986;50.770;0.266;2023-06-14T01:25:23;17.50;99.90
54082;DHT22;39986;50.770;0.266;2023-06-14T01:27:55;17.40;99.90
54082;DHT22;39986;50.770;0.266;2023-06-14T01:30:21;17.40;99.90
54082;DHT22;39986;50.770;0.266;2023-06-14T01:32:47;17.30;99.90
54082;DHT22;39986;50.770;0.266;2023-06-14T01:35:15;17.30;99.90
54082;DHT22;39986;50.770;0.266;2023-06-14T01:37:41;17.30;99.90
54082;DHT22;39986;50.770;0.266;2023-06-14T01:40:07;17.20;99.90
54082;DHT22;39986;50.770;0.266;2023-06-14T01:42:35;17.20;99.90
54082;DHT22;39986;50.770;0.266;2023-06-14T01:45:02;17.20;99.90
54082;DHT22;39986;50.770;0.266;2023-06-14T01:47:27;17.20;99.90
54082;DHT22;39986;50.770;0.266;2023-06-14T01:49:53;17.30;99.90
54082;DHT22;39986;50.770;0.266;2023-06-14T01:52:19;17.30;99.90
54082;DHT22;39986;50.770;0.266;2023-06-14T01:54:44;17.30;99.90
54082;DHT22;39986;50.770;0.266;2023-06-14T01:57:11;17.30;99.90
54082;DHT22;39986;50.770;0.266;2023-06-14T01:59:37;17.20;99.90
54082;DHT22;39986;50.770;0.266;2023-06-14T02:02:02;17.20;99.90
54082;DHT22;39986;50.770;0.266;2023-06-14T02:04:28;17.10;99.90
54082;DHT22;39986;50.770;0.266;2023-06-14T02:06:54;17.10;99.90
54082;DHT22;39986;50.770;0.266;2023-06-14T02:09:19;17.10;99.90
54082;DHT22;39986;50.770;0.266;2023-06-14T02:11:45;17.20;99.90
54082;DHT22;39986;50.770;0.266;2023-06-14T02:14:11;17.10;99.90
54082;DHT22;39986;50.770;0.266;2023-06-14T02:16:37;17.00;99.90
54082;DHT22;39986;50.770;0.266;2023-06-14T02:19:04;17.10;99.90
54082;DHT22;39986;50.770;0.266;2023-06-14T02:21:30;17.00;99.90
54082;DHT22;39986;50.770;0.266;2023-06-14T02:23:56;17.00;99.90
54082;DHT22;39986;50.770;0.266;2023-06-14T02:26:21;17.00;99.90
54082;DHT22;39986;50.770;0.266;2023-06-14T02:28:48;17.00;99.90
54082;DHT22;39986;50.770;0.266;2023-06-14T02:31:13;17.00;99.90
54082;DHT22;39986;50.770;0.266;2023-06-14T02:33:39;17.00;99.90
54082;DHT22;39986;50.770;0.266;2023-06-14T02:36:05;16.90;99.90
54082;DHT22;39986;50.770;0.266;2023-06-14T02:38:31;16.90;99.90
54082;DHT22;39986;50.770;0.266;2023-06-14T02:40:57;16.90;99.90
54082;DHT22;39986;50.770;0.266;2023-06-14T02:43:24;16.90;99.90
54082;DHT22;39986;50.770;0.266;2023-06-14T02:45:50;16.70;99.90
54082;DHT22;39986;50.770;0.266;2023-06-14T02:48:16;16.80;99.90
54082;DHT22;39986;50.770;0.266;2023-06-14T02:50:41;16.80;99.90
54082;DHT22;39986;50.770;0.266;2023-06-14T02:53:07;16.80;99.90
54082;DHT22;39986;50.770;0.266;2023-06-14T02:55:33;16.80;99.90
54082;DHT22;39986;50.770;0.266;2023-06-14T02:57:58;16.80;99.90
54082;DHT22;39986;50.770;0.266;2023-06-14T03:00:24;16.70;99.90
54082;DHT22;39986;50.770;0.266;2023-06-14T03:02:50;16.60;99.90
54082;DHT22;39986;50.770;0.266;2023-06-14T03:05:16;16.60;99.90
54082;DHT22;39986;50.770;0.266;2023-06-14T03:07:46;16.60;99.90
54082;DHT22;39986;50.770;0.266;2023-06-14T03:10:12;16.60;99.90
54082;DHT22;39986;50.770;0.266;2023-06-14T03:12:38;16.50;99.90
54082;DHT22;39986;50.770;0.266;2023-06-14T03:15:04;16.50;99.90
54082;DHT22;39986;50.770;0.266;2023-06-14T03:17:30;16.60;99.90
54082;DHT22;39986;50.770;0.266;2023-06-14T03:20:01;16.50;99.90
54082;DHT22;39986;50.770;0.266;2023-06-14T03:22:27;16.50;99.90
54082;DHT22;39986;50.770;0.266;2023-06-14T03:24:53;16.60;99.90
54082;DHT22;39986;50.770;0.266;2023-06-14T03:27:19;16.50;99.90
54082;DHT22;39986;50.770;0.266;2023-06-14T03:29:45;16.50;99.90
54082;DHT22;39986;50.770;0.266;2023-06-14T03:32:10;16.50;99.90
54082;DHT22;39986;50.770;0.266;2023-06-14T03:34:36;16.40;99.90
54082;DHT22;39986;50.770;0.266;2023-06-14T03:37:04;16.50;99.90
54082;DHT22;39986;50.770;0.266;2023-06-14T03:39:30;16.40;99.90
54082;DHT22;39986;50.770;0.266;2023-06-14T03:41:55;16.50;99.90
54082;DHT22;39986;50.770;0.266;2023-06-14T03:44:21;16.40;99.90
54082;DHT22;39986;50.770;0.266;2023-06-14T03:46:46;16.50;99.90
54082;DHT22;39986;50.770;0.266;2023-06-14T03:49:12;16.40;99.90
54082;DHT22;39986;50.770;0.266;2023-06-14T03:51:38;16.50;99.90
54082;DHT22;39986;50.770;0.266;2023-06-14T03:54:03;16.50;99.90
54082;DHT22;39986;50.770;0.266;2023-06-14T03:56:29;16.40;99.90
54082;DHT22;39986;50.770;0.266;2023-06-14T03:58:54;16.40;99.90
54082;DHT22;39986;50.770;0.266;2023-06-14T04:01:20;16.40;99.90
54082;DHT22;39986;50.770;0.266;2023-06-14T04:03:46;16.30;99.90
54082;DHT22;39986;50.770;0.266;2023-06-14T04:06:12;16.30;99.90
54082;DHT22;39986;50.770;0.266;2023-06-14T04:08:37;16.30;99.90
54082;DHT22;39986;50.770;0.266;2023-06-14T04:11:05;16.30;99.90
54082;DHT22;39986;50.770;0.266;2023-06-14T04:13:30;16.30;99.90
54082;DHT22;39986;50.770;0.266;2023-06-14T04:15:56;16.30;99.90
54082;DHT22;39986;50.770;0.266;2023-06-14T04:18:22;16.40;99.90
54082;DHT22;39986;50.770;0.266;2023-06-14T04:20:49;16.40;99.90
54082;DHT22;39986;50.770;0.266;2023-06-14T04:23:17;16.40;99.90
54082;DHT22;39986;50.770;0.266;2023-06-14T04:25:47;16.40;99.90
54082;DHT22;39986;50.770;0.266;2023-06-14T04:28:13;16.50;99.90
54082;DHT22;39986;50.770;0.266;2023-06-14T04:30:40;16.50;99.90
54082;DHT22;39986;50.770;0.266;2023-06-14T04:33:06;16.50;99.90
54082;DHT22;39986;50.770;0.266;2023-06-14T04:35:31;16.50;99.90
54082;DHT22;39986;50.770;0.266;2023-06-14T04:38:01;16.50;99.90
54082;DHT22;39986;50.770;0.266;2023-06-14T04:40:30;16.50;99.90
54082;DHT22;39986;50.770;0.266;2023-06-14T04:42:55;16.60;99.90
54082;DHT22;39986;50.770;0.266;2023-06-14T04:45:21;16.60;99.90
54082;DHT22;39986;50.770;0.266;2023-06-14T04:47:47;16.60;99.90
54082;DHT22;39986;50.770;0.266;2023-06-14T04:50:12;16.60;99.90
54082;DHT22;39986;50.770;0.266;2023-06-14T04:52:38;16.60;99.90
54082;DHT22;39986;50.770;0.266;2023-06-14T04:55:04;16.60;99.90
54082;DHT22;39986;50.770;0.266;2023-06-14T04:57:30;16.60;99.90
54082;DHT22;39986;50.770;0.266;2023-06-14T04:59:56;16.60;99.90
54082;DHT22;39986;50.770;0.266;2023-06-14T05:02:23;16.70;99.90
54082;DHT22;39986;50.770;0.266;2023-06-14T05:04:49;16.70;99.90
54082;DHT22;39986;50.770;0.266;2023-06-14T05:07:14;16.80;99.90
54082;DHT22;39986;50.770;0.266;2023-06-14T05:09:40;16.80;99.90
54082;DHT22;39986;50.770;0.266;2023-06-14T05:12:05;17.00;99.90
54082;DHT22;39986;50.770;0.266;2023-06-14T05:14:36;17.10;99.90
54082;DHT22;39986;50.770;0.266;2023-06-14T05:17:02;17.20;99.90
54082;DHT22;39986;50.770;0.266;2023-06-14T05:19:30;17.20;99.90
54082;DHT22;39986;50.770;0.266;2023-06-14T05:21:55;17.30;99.90
54082;DHT22;39986;50.770;0.266;2023-06-14T05:24:21;17.40;99.90
54082;DHT22;39986;50.770;0.266;2023-06-14T05:26:47;17.40;99.90
54082;DHT22;39986;50.770;0.266;2023-06-14T05:29:14;17.50;99.90
54082;DHT22;39986;50.770;0.266;2023-06-14T05:31:39;17.40;99.90
54082;DHT22;39986;50.770;0.266;2023-06-14T05:34:05;17.40;99.90
54082;DHT22;39986;50.770;0.266;2023-06-14T05:36:31;17.50;99.90
54082;DHT22;39986;50.770;0.266;2023-06-14T05:38:56;17.60;99.90
54082;DHT22;39986;50.770;0.266;2023-06-14T05:41:25;17.70;99.90
54082;DHT22;39986;50.770;0.266;2023-06-14T05:43:51;17.80;99.90
54082;DHT22;39986;50.770;0.266;2023-06-14T05:46:17;17.90;99.90
54082;DHT22;39986;50.770;0.266;2023-06-14T05:48:47;18.00;99.90
54082;DHT22;39986;50.770;0.266;2023-06-14T05:51:13;18.00;99.90
54082;DHT22;39986;50.770;0.266;2023-06-14T05:53:38;18.10;99.90
54082;DHT22;39986;50.770;0.266;2023-06-14T05:56:04;18.20;99.90
54082;DHT22;39986;50.770;0.266;2023-06-14T05:58:30;18.20;99.90
54082;DHT22;39986;50.770;0.266;2023-06-14T06:00:55;18.30;99.90
54082;DHT22;39986;50.770;0.266;2023-06-14T06:03:21;18.40;99.90
54082;DHT22;39986;50.770;0.266;2023-06-14T06:05:46;18.50;99.90
54082;DHT22;39986;50.770;0.266;2023-06-14T06:08:12;18.50;99.90
54082;DHT22;39986;50.770;0.266;2023-06-14T06:10:38;18.60;99.90
54082;DHT22;39986;50.770;0.266;2023-06-14T06:13:04;18.60;99.90
54082;DHT22;39986;50.770;0.266;2023-06-14T06:15:29;18.60;99.90
54082;DHT22;39986;50.770;0.266;2023-06-14T06:17:55;18.70;99.90
54082;DHT22;39986;50.770;0.266;2023-06-14T06:20:21;18.80;99.90
54082;DHT22;39986;50.770;0.266;2023-06-14T06:22:52;18.80;99.90
54082;DHT22;39986;50.770;0.266;2023-06-14T06:25:19;18.90;99.90
54082;DHT22;39986;50.770;0.266;2023-06-14T06:27:44;19.00;99.90
54082;DHT22;39986;50.770;0.266;2023-06-14T06:30:10;19.10;99.90
54082;DHT22;39986;50.770;0.266;2023-06-14T06:32:36;19.10;99.90
54082;DHT22;39986;50.770;0.266;2023-06-14T06:35:01;19.10;99.90
54082;DHT22;39986;50.770;0.266;2023-06-14T06:37:27;19.20;99.90
54082;DHT22;39986;50.770;0.266;2023-06-14T06:39:52;19.30;99.90
54082;DHT22;39986;50.770;0.266;2023-06-14T06:42:18;19.40;99.90
54082;DHT22;39986;50.770;0.266;2023-06-14T06:44:44;19.50;99.90
54082;DHT22;39986;50.770;0.266;2023-06-14T06:47:09;19.70;99.90
54082;DHT22;39986;50.770;0.266;2023-06-14T06:49:36;19.70;99.90
54082;DHT22;39986;50.770;0.266;2023-06-14T06:52:03;19.80;99.90
54082;DHT22;39986;50.770;0.266;2023-06-14T06:54:29;19.90;99.90
54082;DHT22;39986;50.770;0.266;2023-06-14T06:56:54;20.00;99.90
54082;DHT22;39986;50.770;0.266;2023-06-14T06:59:20;20.20;99.90
54082;DHT22;39986;50.770;0.266;2023-06-14T07:01:46;20.20;99.90
54082;DHT22;39986;50.770;0.266;2023-06-14T07:04:12;20.30;99.90
54082;DHT22;39986;50.770;0.266;2023-06-14T07:06:37;20.40;99.90
54082;DHT22;39986;50.770;0.266;2023-06-14T07:09:03;20.50;99.90
54082;DHT22;39986;50.770;0.266;2023-06-14T07:11:30;20.50;99.90
54082;DHT22;39986;50.770;0.266;2023-06-14T07:13:56;20.70;99.90
54082;DHT22;39986;50.770;0.266;2023-06-14T07:16:21;20.80;99.90
54082;DHT22;39986;50.770;0.266;2023-06-14T07:18:47;21.00;99.90
54082;DHT22;39986;50.770;0.266;2023-06-14T07:21:12;21.10;99.90
54082;DHT22;39986;50.770;0.266;2023-06-14T07:23:38;21.20;99.90
54082;DHT22;39986;50.770;0.266;2023-06-14T07:26:03;21.40;99.90
54082;DHT22;39986;50.770;0.266;2023-06-14T07:28:29;21.50;99.90
54082;DHT22;39986;50.770;0.266;2023-06-14T07:30:55;21.60;99.90
54082;DHT22;39986;50.770;0.266;2023-06-14T07:33:20;21.70;99.90
54082;DHT22;39986;50.770;0.266;2023-06-14T07:35:46;21.80;99.90
54082;DHT22;39986;50.770;0.266;2023-06-14T07:38:13;21.90;99.90
54082;DHT22;39986;50.770;0.266;2023-06-14T07:40:38;21.90;99.90
54082;DHT22;39986;50.770;0.266;2023-06-14T07:43:04;22.00;99.90
54082;DHT22;39986;50.770;0.266;2023-06-14T07:45:29;22.20;99.90
54082;DHT22;39986;50.770;0.266;2023-06-14T07:47:55;22.30;99.90
54082;DHT22;39986;50.770;0.266;2023-06-14T07:50:21;22.50;99.90
54082;DHT22;39986;50.770;0.266;2023-06-14T07:52:47;22.50;99.90
54082;DHT22;39986;50.770;0.266;2023-06-14T07:55:13;22.60;99.90
54082;DHT22;39986;50.770;0.266;2023-06-14T07:57:39;22.80;99.90
54082;DHT22;39986;50.770;0.266;2023-06-14T08:00:05;22.90;99.90
54082;DHT22;39986;50.770;0.266;2023-06-14T08:02:36;23.00;99.90
54082;DHT22;39986;50.770;0.266;2023-06-14T08:05:01;23.10;99.90
54082;DHT22;39986;50.770;0.266;2023-06-14T08:07:27;23.10;99.90
54082;DHT22;39986;50.770;0.266;2023-06-14T08:09:52;23.30;99.90
54082;DHT22;39986;50.770;0.266;2023-06-14T08:12:18;23.50;99.90
54082;DHT22;39986;50.770;0.266;2023-06-14T08:14:43;23.50;99.90
54082;DHT22;39986;50.770;0.266;2023-06-14T08:17:09;23.60;99.90
54082;DHT22;39986;50.770;0.266;2023-06-14T08:19:34;23.60;99.90
54082;DHT22;39986;50.770;0.266;2023-06-14T08:22:00;23.70;99.90
54082;DHT22;39986;50.770;0.266;2023-06-14T08:24:26;23.60;99.90
54082;DHT22;39986;50.770;0.266;2023-06-14T08:26:52;23.70;99.90
54082;DHT22;39986;50.770;0.266;2023-06-14T08:29:18;23.80;99.90
54082;DHT22;39986;50.770;0.266;2023-06-14T08:31:43;24.00;99.90
54082;DHT22;39986;50.770;0.266;2023-06-14T08:34:09;24.10;99.90
54082;DHT22;39986;50.770;0.266;2023-06-14T08:36:35;24.20;99.90
54082;DHT22;39986;50.770;0.266;2023-06-14T08:39:01;24.20;99.90
54082;DHT22;39986;50.770;0.266;2023-06-14T08:41:26;24.30;99.90
54082;DHT22;39986;50.770;0.266;2023-06-14T08:43:55;24.30;99.90
54082;DHT22;39986;50.770;0.266;2023-06-14T08:46:21;24.50;99.90
54082;DHT22;39986;50.770;0.266;2023-06-14T08:48:48;24.60;99.90
54082;DHT22;39986;50.770;0.266;2023-06-14T08:51:16;24.80;99.90
54082;DHT22;39986;50.770;0.266;2023-06-14T08:53:43;25.00;99.90
54082;DHT22;39986;50.770;0.266;2023-06-14T08:56:09;25.00;99.90
54082;DHT22;39986;50.770;0.266;2023-06-14T08:58:42;25.10;99.90
54082;DHT22;39986;50.770;0.266;2023-06-14T09:01:10;25.20;99.90
54082;DHT22;39986;50.770;0.266;2023-06-14T09:03:43;25.30;99.90
54082;DHT22;39986;50.770;0.266;2023-06-14T09:06:08;25.40;99.90
54082;DHT22;39986;50.770;0.266;2023-06-14T09:08:42;25.60;99.90
54082;DHT22;39986;50.770;0.266;2023-06-14T09:11:08;25.70;99.90
54082;DHT22;39986;50.770;0.266;2023-06-14T09:13:34;25.80;99.90
54082;DHT22;39986;50.770;0.266;2023-06-14T09:15:59;25.90;99.90
54082;DHT22;39986;50.770;0.266;2023-06-14T09:21:00;26.30;99.90
54082;DHT22;39986;50.770;0.266;2023-06-14T09:23:26;26.40;99.90
54082;DHT22;39986;50.770;0.266;2023-06-14T09:25:51;26.60;99.90
54082;DHT22;39986;50.770;0.266;2023-06-14T09:28:17;26.90;99.90
54082;DHT22;39986;50.770;0.266;2023-06-14T09:30:42;27.10;99.90
54082;DHT22;39986;50.770;0.266;2023-06-14T09:33:08;27.20;99.90
54082;DHT22;39986;50.770;0.266;2023-06-14T09:35:34;27.40;99.90
54082;DHT22;39986;50.770;0.266;2023-06-14T09:38:00;27.40;99.90
54082;DHT22;39986;50.770;0.266;2023-06-14T09:40:26;27.50;99.90
54082;DHT22;39986;50.770;0.266;2023-06-14T09:42:51;27.40;99.90
54082;DHT22;39986;50.770;0.266;2023-06-14T09:45:17;27.40;99.90
54082;DHT22;39986;50.770;0.266;2023-06-14T09:47:50;27.30;99.90
54082;DHT22;39986;50.770;0.266;2023-06-14T09:50:15;27.40;99.90
54082;DHT22;39986;50.770;0.266;2023-06-14T09:52:42;27.30;99.90
54082;DHT22;39986;50.770;0.266;2023-06-14T09:55:11;27.00;99.90
54082;DHT22;39986;50.770;0.266;2023-06-14T09:57:37;26.90;99.90
54082;DHT22;39986;50.770;0.266;2023-06-14T10:00:06;27.00;99.90
54082;DHT22;39986;50.770;0.266;2023-06-14T10:02:36;27.40;99.90
54082;DHT22;39986;50.770;0.266;2023-06-14T10:05:03;27.30;99.90
54082;DHT22;39986;50.770;0.266;2023-06-14T10:07:32;26.90;99.90
54082;DHT22;39986;50.770;0.266;2023-06-14T10:09:59;26.80;99.90
54082;DHT22;39986;50.770;0.266;2023-06-14T10:12:24;27.00;99.90
54082;DHT22;39986;50.770;0.266;2023-06-14T10:14:51;27.00;99.90
54082;DHT22;39986;50.770;0.266;2023-06-14T10:18:01;27.20;99.90
54082;DHT22;39986;50.770;0.266;2023-06-14T10:20:17;27.40;99.90
54082;DHT22;39986;50.770;0.266;2023-06-14T10:22:48;27.30;99.90
54082;DHT22;39986;50.770;0.266;2023-06-14T10:25:28;27.40;99.90
54082;DHT22;39986;50.770;0.266;2023-06-14T10:30:37;27.40;99.90
54082;DHT22;39986;50.770;0.266;2023-06-14T10:33:08;27.40;99.90
54082;DHT22;39986;50.770;0.266;2023-06-14T10:35:35;27.60;99.90
54082;DHT22;39986;50.770;0.266;2023-06-14T10:38:11;27.80;99.90
54082;DHT22;39986;50.770;0.266;2023-06-14T10:40:37;27.70;99.90
54082;DHT22;39986;50.770;0.266;2023-06-14T10:43:22;27.90;99.90
54082;DHT22;39986;50.770;0.266;2023-06-14T10:48:36;28.30;99.90
54082;DHT22;39986;50.770;0.266;2023-06-14T10:51:05;28.70;99.90
54082;DHT22;39986;50.770;0.266;2023-06-14T10:53:39;28.90;99.90
54082;DHT22;39986;50.770;0.266;2023-06-14T10:56:08;28.60;99.90
54082;DHT22;39986;50.770;0.266;2023-06-14T10:58:34;28.30;99.90
54082;DHT22;39986;50.770;0.266;2023-06-14T11:00:59;28.10;99.90
54082;DHT22;39986;50.770;0.266;2023-06-14T11:03:31;28.10;99.90
54082;DHT22;39986;50.770;0.266;2023-06-14T11:06:02;28.30;99.90
54082;DHT22;39986;50.770;0.266;2023-06-14T11:11:05;30.70;99.90
54082;DHT22;39986;50.770;0.266;2023-06-14T11:13:31;31.90;99.60
54082;DHT22;39986;50.770;0.266;2023-06-14T11:15:56;32.40;98.10
54082;DHT22;39986;50.770;0.266;2023-06-14T11:18:23;31.80;98.10
54082;DHT22;39986;50.770;0.266;2023-06-14T11:20:55;32.30;98.10
54082;DHT22;39986;50.770;0.266;2023-06-14T11:23:21;34.40;96.50
54082;DHT22;39986;50.770;0.266;2023-06-14T11:25:52;36.00;92.70
54082;DHT22;39986;50.770;0.266;2023-06-14T11:28:18;36.10;91.10
54082;DHT22;39986;50.770;0.266;2023-06-14T11:31:09;36.80;90.00
54082;DHT22;39986;50.770;0.266;2023-06-14T11:33:35;37.70;86.00
54082;DHT22;39986;50.770;0.266;2023-06-14T11:36:01;37.90;84.30
54082;DHT22;39986;50.770;0.266;2023-06-14T11:38:27;37.70;81.10
54082;DHT22;39986;50.770;0.266;2023-06-14T11:40:53;38.40;82.10
54082;DHT22;39986;50.770;0.266;2023-06-14T11:43:18;39.00;77.00
54082;DHT22;39986;50.770;0.266;2023-06-14T11:45:47;39.20;75.10
54082;DHT22;39986;50.770;0.266;2023-06-14T11:48:13;39.70;73.70
54082;DHT22;39986;50.770;0.266;2023-06-14T11:50:38;38.40;73.50
54082;DHT22;39986;50.770;0.266;2023-06-14T11:53:04;37.00;74.70
54082;DHT22;39986;50.770;0.266;2023-06-14T11:55:35;36.50;73.80
54082;DHT22;39986;50.770;0.266;2023-06-14T11:58:01;36.90;73.80
54082;DHT22;39986;50.770;0.266;2023-06-14T12:00:27;36.90;72.00
54082;DHT22;39986;50.770;0.266;2023-06-14T12:02:55;36.40;71.70
54082;DHT22;39986;50.770;0.266;2023-06-14T12:05:21;36.00;72.10
54082;DHT22;39986;50.770;0.266;2023-06-14T12:07:47;35.20;74.40
54082;DHT22;39986;50.770;0.266;2023-06-14T12:10:13;34.60;79.60
54082;DHT22;39986;50.770;0.266;2023-06-14T12:12:39;34.40;76.90
54082;DHT22;39986;50.770;0.266;2023-06-14T12:15:06;34.70;74.60
54082;DHT22;39986;50.770;0.266;2023-06-14T12:17:35;34.30;79.20
54082;DHT22;39986;50.770;0.266;2023-06-14T12:20:08;35.10;76.60
54082;DHT22;39986;50.770;0.266;2023-06-14T12:22:55;34.80;74.00
54082;DHT22;39986;50.770;0.266;2023-06-14T12:25:27;33.00;76.70
54082;DHT22;39986;50.770;0.266;2023-06-14T12:27:56;32.80;79.20
54082;DHT22;39986;50.770;0.266;2023-06-14T12:30:21;32.70;80.20
54082;DHT22;39986;50.770;0.266;2023-06-14T12:32:47;32.70;80.60
54082;DHT22;39986;50.770;0.266;2023-06-14T12:35:13;32.90;81.90
54082;DHT22;39986;50.770;0.266;2023-06-14T12:37:39;33.80;81.00
54082;DHT22;39986;50.770;0.266;2023-06-14T12:40:05;34.20;79.70
54082;DHT22;39986;50.770;0.266;2023-06-14T12:42:31;34.60;74.20
54082;DHT22;39986;50.770;0.266;2023-06-14T12:44:57;35.70;73.80
54082;DHT22;39986;50.770;0.266;2023-06-14T12:47:22;35.30;68.80
54082;DHT22;39986;50.770;0.266;2023-06-14T12:49:48;34.10;74.20
54082;DHT22;39986;50.770;0.266;2023-06-14T12:52:13;33.90;73.10
54082;DHT22;39986;50.770;0.266;2023-06-14T12:54:39;34.90;71.20
54082;DHT22;39986;50.770;0.266;2023-06-14T12:57:05;34.60;74.20
54082;DHT22;39986;50.770;0.266;2023-06-14T12:59:31;34.60;73.70
54082;DHT22;39986;50.770;0.266;2023-06-14T13:02:19;33.90;74.30
54082;DHT22;39986;50.770;0.266;2023-06-14T13:04:44;34.70;72.40
54082;DHT22;39986;50.770;0.266;2023-06-14T13:07:10;34.30;69.40
54082;DHT22;39986;50.770;0.266;2023-06-14T13:09:40;33.40;70.10
54082;DHT22;39986;50.770;0.266;2023-06-14T13:12:06;33.60;71.80
54082;DHT22;39986;50.770;0.266;2023-06-14T13:14:32;33.80;69.20
54082;DHT22;39986;50.770;0.266;2023-06-14T13:16:57;34.40;72.20
54082;DHT22;39986;50.770;0.266;2023-06-14T13:19:23;34.60;67.00
54082;DHT22;39986;50.770;0.266;2023-06-14T13:21:48;34.20;68.60
54082;DHT22;39986;50.770;0.266;2023-06-14T13:24:14;34.10;72.90
54082;DHT22;39986;50.770;0.266;2023-06-14T13:26:40;34.00;71.20
54082;DHT22;39986;50.770;0.266;2023-06-14T13:29:06;34.50;70.00
54082;DHT22;39986;50.770;0.266;2023-06-14T13:31:31;34.10;67.90
54082;DHT22;39986;50.770;0.266;2023-06-14T13:33:57;34.10;67.60
54082;DHT22;39986;50.770;0.266;2023-06-14T13:36:22;34.60;67.40
54082;DHT22;39986;50.770;0.266;2023-06-14T13:38:48;34.20;69.50
54082;DHT22;39986;50.770;0.266;2023-06-14T13:41:13;33.90;69.80
54082;DHT22;39986;50.770;0.266;2023-06-14T13:43:39;34.30;67.80
54082;DHT22;39986;50.770;0.266;2023-06-14T13:46:05;34.20;67.80
54082;DHT22;39986;50.770;0.266;2023-06-14T13:48:31;33.90;68.50
54082;DHT22;39986;50.770;0.266;2023-06-14T13:50:59;33.50;68.80
54082;DHT22;39986;50.770;0.266;2023-06-14T13:53:25;33.20;70.00
54082;DHT22;39986;50.770;0.266;2023-06-14T13:55:50;34.30;66.60
54082;DHT22;39986;50.770;0.266;2023-06-14T13:58:17;35.20;66.80
54082;DHT22;39986;50.770;0.266;2023-06-14T14:00:43;35.10;65.80
54082;DHT22;39986;50.770;0.266;2023-06-14T14:03:09;34.70;67.00
54082;DHT22;39986;50.770;0.266;2023-06-14T14:05:35;34.60;68.80
54082;DHT22;39986;50.770;0.266;2023-06-14T14:08:00;34.20;69.70
54082;DHT22;39986;50.770;0.266;2023-06-14T14:10:27;34.00;69.60
54082;DHT22;39986;50.770;0.266;2023-06-14T14:12:52;34.70;67.20
54082;DHT22;39986;50.770;0.266;2023-06-14T14:15:20;34.20;68.70
54082;DHT22;39986;50.770;0.266;2023-06-14T14:17:45;33.60;68.20
54082;DHT22;39986;50.770;0.266;2023-06-14T14:20:12;32.70;74.70
54082;DHT22;39986;50.770;0.266;2023-06-14T14:22:43;32.20;76.10
54082;DHT22;39986;50.770;0.266;2023-06-14T14:25:09;32.40;75.40
54082;DHT22;39986;50.770;0.266;2023-06-14T14:27:34;32.70;73.80
54082;DHT22;39986;50.770;0.266;2023-06-14T14:30:01;33.80;73.00
54082;DHT22;39986;50.770;0.266;2023-06-14T14:32:26;34.00;68.30
54082;DHT22;39986;50.770;0.266;2023-06-14T14:34:52;33.60;69.80
54082;DHT22;39986;50.770;0.266;2023-06-14T14:37:17;33.90;70.60
54082;DHT22;39986;50.770;0.266;2023-06-14T14:39:44;33.20;69.70
54082;DHT22;39986;50.770;0.266;2023-06-14T14:42:09;32.40;73.50
54082;DHT22;39986;50.770;0.266;2023-06-14T14:44:37;33.50;70.40
54082;DHT22;39986;50.770;0.266;2023-06-14T14:47:02;32.60;71.40
54082;DHT22;39986;50.770;0.266;2023-06-14T14:49:28;30.20;74.10
54082;DHT22;39986;50.770;0.266;2023-06-14T14:51:54;28.60;78.70
54082;DHT22;39986;50.770;0.266;2023-06-14T14:54:21;27.70;84.80
54082;DHT22;39986;50.770;0.266;2023-06-14T14:56:47;27.40;88.20
54082;DHT22;39986;50.770;0.266;2023-06-14T14:59:12;27.20;88.20
54082;DHT22;39986;50.770;0.266;2023-06-14T15:01:38;27.10;88.90
54082;DHT22;39986;50.770;0.266;2023-06-14T15:04:03;26.70;90.00
54082;DHT22;39986;50.770;0.266;2023-06-14T15:06:29;26.70;89.90
54082;DHT22;39986;50.770;0.266;2023-06-14T15:08:55;26.50;88.20
54082;DHT22;39986;50.770;0.266;2023-06-14T15:11:20;26.40;90.20
54082;DHT22;39986;50.770;0.266;2023-06-14T15:13:46;26.10;92.90
54082;DHT22;39986;50.770;0.266;2023-06-14T15:16:12;26.10;94.80
54082;DHT22;39986;50.770;0.266;2023-06-14T15:18:38;26.20;98.20
54082;DHT22;39986;50.770;0.266;2023-06-14T15:21:03;25.70;97.20
54082;DHT22;39986;50.770;0.266;2023-06-14T15:23:32;25.60;98.10
54082;DHT22;39986;50.770;0.266;2023-06-14T15:25:57;25.80;96.10
54082;DHT22;39986;50.770;0.266;2023-06-14T15:28:26;25.90;96.90
54082;DHT22;39986;50.770;0.266;2023-06-14T15:30:57;26.00;98.80
54082;DHT22;39986;50.770;0.266;2023-06-14T15:33:22;26.00;98.40
54082;DHT22;39986;50.770;0.266;2023-06-14T15:35:48;26.00;99.50
54082;DHT22;39986;50.770;0.266;2023-06-14T15:38:13;25.70;99.90
54082;DHT22;39986;50.770;0.266;2023-06-14T15:40:39;25.40;99.90
54082;DHT22;39986;50.770;0.266;2023-06-14T15:43:04;25.00;99.90